createdAt,value
2019-05-13T00:01:50.189Z,4.43
2019-05-13T00:04:25.368Z,4.43
2019-05-13T00:07:00.458Z,4.42
2019-05-13T00:09:34.532Z,4.44
2019-05-13T00:12:08.440Z,4.36
2019-05-13T00:14:43.411Z,4.28
2019-05-13T00:17:18.848Z,4.26
2019-05-13T00:19:53.236Z,4.21
2019-05-13T00:22:27.283Z,4.21
2019-05-13T00:25:00.987Z,4.16
2019-05-13T00:27:36.021Z,4.09
2019-05-13T00:30:10.347Z,4.02
2019-05-13T00:32:45.079Z,3.98
2019-05-13T00:35:20.032Z,3.91
2019-05-13T00:37:54.337Z,3.90
2019-05-13T00:40:28.804Z,3.91
2019-05-13T00:43:03.907Z,3.95
2019-05-13T00:45:38.186Z,3.97
2019-05-13T00:48:14.386Z,3.90
2019-05-13T00:50:48.551Z,3.89
2019-05-13T00:53:23.740Z,3.81
2019-05-13T00:55:57.914Z,3.78
2019-05-13T00:58:33.509Z,3.80
2019-05-13T01:01:07.552Z,3.72
2019-05-13T01:03:41.328Z,3.66
2019-05-13T01:06:15.517Z,3.69
2019-05-13T01:08:49.224Z,3.63
2019-05-13T01:11:23.657Z,3.62
2019-05-13T01:13:57.696Z,3.62
2019-05-13T01:16:33.935Z,3.62
2019-05-13T01:19:06.712Z,3.51
2019-05-13T01:21:43.492Z,3.48
2019-05-13T01:24:18.534Z,3.45
2019-05-13T01:26:54.109Z,3.44
2019-05-13T01:29:29.384Z,3.45
2019-05-13T01:32:04.650Z,3.39
2019-05-13T01:34:39.037Z,3.38
2019-05-13T01:37:13.368Z,3.35
2019-05-13T01:39:47.286Z,3.25
2019-05-13T01:42:21.196Z,3.34
2019-05-13T01:44:56.682Z,3.30
2019-05-13T01:47:30.480Z,3.33
2019-05-13T01:50:05.874Z,3.26
2019-05-13T01:52:39.938Z,3.26
2019-05-13T01:55:14.709Z,3.28
2019-05-13T01:57:48.579Z,3.34
2019-05-13T02:00:24.166Z,3.39
2019-05-13T02:02:57.966Z,3.30
2019-05-13T02:05:34.036Z,3.38
2019-05-13T02:08:09.482Z,3.25
2019-05-13T02:10:56.854Z,3.23
2019-05-13T02:13:30.506Z,3.24
2019-05-13T02:16:04.518Z,3.11
2019-05-13T02:18:38.236Z,3.10
2019-05-13T02:21:13.900Z,3.01
2019-05-13T02:23:47.837Z,2.95
2019-05-13T02:26:23.884Z,2.90
2019-05-13T02:28:56.964Z,2.95
2019-05-13T02:31:41.506Z,2.86
2019-05-13T02:34:06.666Z,2.92
2019-05-13T02:36:43.606Z,2.86
2019-05-13T02:39:17.027Z,2.87
2019-05-13T02:41:52.784Z,2.86
2019-05-13T02:44:26.724Z,2.85
2019-05-13T02:47:03.365Z,2.87
2019-05-13T02:49:36.077Z,2.84
2019-05-13T02:52:12.995Z,2.84
2019-05-13T02:54:46.939Z,2.82
2019-05-13T02:57:23.363Z,2.77
2019-05-13T02:59:58.957Z,2.75
2019-05-13T03:02:32.930Z,2.73
2019-05-13T03:05:07.929Z,2.72
2019-05-13T03:07:42.737Z,2.76
2019-05-13T03:10:18.803Z,2.69
2019-05-13T03:12:53.404Z,2.67
2019-05-13T03:15:32.662Z,2.65
2019-05-13T03:18:06.770Z,2.68
2019-05-13T03:20:43.078Z,2.65
2019-05-13T03:23:16.485Z,2.66
2019-05-13T03:25:53.777Z,2.60
2019-05-13T03:28:25.962Z,2.65
2019-05-13T03:31:05.443Z,2.78
2019-05-13T03:33:37.579Z,2.70
2019-05-13T03:36:16.446Z,2.73
2019-05-13T03:39:05.632Z,2.71
2019-05-13T03:41:32.829Z,2.74
2019-05-13T03:44:13.636Z,2.80
2019-05-13T03:46:54.235Z,2.84
2019-05-13T03:49:32.867Z,2.90
2019-05-13T03:52:06.813Z,2.88
2019-05-13T03:54:43.620Z,2.99
2019-05-13T03:57:17.902Z,3.01
2019-05-13T03:59:52.702Z,2.98
2019-05-13T04:02:26.581Z,3.14
2019-05-13T04:05:03.791Z,3.19
2019-05-13T04:07:36.118Z,3.25
2019-05-13T04:10:13.209Z,3.43
2019-05-13T04:12:47.114Z,3.64
2019-05-13T04:15:23.553Z,4.47
2019-05-13T04:17:57.312Z,5.41
2019-05-13T04:20:33.299Z,6.13
2019-05-13T04:23:07.646Z,6.60
2019-05-13T04:25:44.743Z,7.32
2019-05-13T04:28:21.970Z,7.74
2019-05-13T04:30:55.319Z,8.21
2019-05-13T04:33:29.282Z,8.64
2019-05-13T04:36:03.401Z,8.96
2019-05-13T04:38:37.314Z,9.31
2019-05-13T04:41:11.954Z,9.53
2019-05-13T04:43:47.209Z,9.72
2019-05-13T04:46:22.822Z,10.10
2019-05-13T04:48:56.610Z,10.59
2019-05-13T04:51:32.877Z,11.44
2019-05-13T04:54:07.028Z,11.76
2019-05-13T04:56:42.412Z,12.23
2019-05-13T04:59:16.720Z,12.23
2019-05-13T05:02:40.082Z,12.51
2019-05-13T05:05:44.337Z,12.78
2019-05-13T05:09:08.494Z,12.98
2019-05-13T05:12:42.338Z,13.30
2019-05-13T05:15:57.944Z,13.88
2019-05-13T05:20:23.402Z,14.61
2019-05-13T05:23:51.985Z,15.01
2019-05-13T05:27:18.206Z,15.32
2019-05-13T05:30:21.804Z,16.20
2019-05-13T05:33:51.673Z,15.62
2019-05-13T05:37:06.186Z,16.86
2019-05-13T05:39:42.196Z,16.13
2019-05-13T05:42:17.945Z,16.43
2019-05-13T05:44:55.209Z,16.86
2019-05-13T05:47:33.781Z,16.82
2019-05-13T05:50:12.139Z,16.92
2019-05-13T05:52:51.241Z,17.36
2019-05-13T05:55:27.899Z,17.81
2019-05-13T05:58:05.927Z,18.10
2019-05-13T06:00:42.599Z,18.50
2019-05-13T06:03:18.524Z,18.96
2019-05-13T06:05:52.625Z,19.52
2019-05-13T06:08:27.886Z,17.91
2019-05-13T06:11:03.647Z,19.26
2019-05-13T06:13:42.032Z,19.53
2019-05-13T06:16:16.372Z,18.66
2019-05-13T06:18:52.248Z,19.18
2019-05-13T06:21:28.080Z,19.24
2019-05-13T06:24:02.893Z,19.45
2019-05-13T06:26:36.602Z,19.22
2019-05-13T06:29:12.576Z,18.82
2019-05-13T06:31:46.373Z,18.90
2019-05-13T06:34:21.865Z,18.91
2019-05-13T06:36:55.637Z,19.80
2019-05-13T06:39:31.743Z,19.85
2019-05-13T06:42:05.784Z,20.47
2019-05-13T06:44:41.474Z,19.40
2019-05-13T06:47:15.074Z,19.45
2019-05-13T06:49:51.640Z,19.94
2019-05-13T06:52:25.791Z,19.29
2019-05-13T06:55:02.529Z,18.93
2019-05-13T06:57:35.772Z,19.07
2019-05-13T07:00:12.225Z,20.04
2019-05-13T07:02:46.086Z,20.10
2019-05-13T07:05:22.466Z,20.47
2019-05-13T07:07:55.356Z,19.33
2019-05-13T07:10:32.119Z,20.31
2019-05-13T07:13:07.366Z,20.13
2019-05-13T07:15:43.850Z,20.26
2019-05-13T07:18:17.529Z,20.71
2019-05-13T07:20:52.985Z,20.85
2019-05-13T07:23:31.868Z,20.61
2019-05-13T07:26:06.138Z,20.07
2019-05-13T07:28:42.884Z,20.03
2019-05-13T07:31:17.392Z,21.17
2019-05-13T07:33:51.683Z,21.11
2019-05-13T07:36:26.990Z,20.38
2019-05-13T07:39:01.542Z,20.43
2019-05-13T07:41:39.446Z,20.74
2019-05-13T07:44:11.865Z,19.71
2019-05-13T07:46:46.830Z,20.86
2019-05-13T07:49:22.536Z,19.79
2019-05-13T07:51:55.962Z,20.36
2019-05-13T07:54:33.005Z,19.98
2019-05-13T07:57:07.578Z,19.72
2019-05-13T07:59:43.341Z,20.42
2019-05-13T08:02:17.144Z,19.68
2019-05-13T08:04:52.933Z,19.83
2019-05-13T08:07:28.053Z,19.78
2019-05-13T08:10:03.634Z,20.54
2019-05-13T08:12:37.158Z,19.53
2019-05-13T08:15:17.734Z,20.56
2019-05-13T08:17:52.634Z,18.86
2019-05-13T08:20:28.207Z,19.43
2019-05-13T08:23:02.678Z,19.90
2019-05-13T08:25:42.109Z,20.09
2019-05-13T08:28:15.255Z,20.01
2019-05-13T08:30:51.643Z,19.78
2019-05-13T08:33:25.143Z,19.62
2019-05-13T08:35:59.429Z,19.23
2019-05-13T08:38:36.060Z,19.19
2019-05-13T08:41:18.718Z,19.39
2019-05-13T08:43:45.813Z,19.01
2019-05-13T08:46:21.815Z,18.55
2019-05-13T08:48:56.174Z,18.35
2019-05-13T08:51:34.669Z,18.58
2019-05-13T08:54:11.500Z,18.42
2019-05-13T08:56:45.207Z,18.83
2019-05-13T08:59:22.180Z,19.18
2019-05-13T09:01:57.514Z,19.30
2019-05-13T09:04:31.728Z,19.66
2019-05-13T09:07:06.217Z,19.17
2019-05-13T09:09:41.936Z,19.19
2019-05-13T09:12:28.433Z,19.26
2019-05-13T09:14:52.380Z,19.45
2019-05-13T09:17:27.229Z,18.83
2019-05-13T09:20:02.811Z,19.24
2019-05-13T09:22:36.698Z,19.05
2019-05-13T09:25:12.647Z,18.87
2019-05-13T09:27:51.360Z,19.03
2019-05-13T09:30:27.389Z,18.96
2019-05-13T09:33:02.748Z,18.28
2019-05-13T09:35:36.680Z,18.76
2019-05-13T09:38:12.788Z,19.06
2019-05-13T09:40:46.966Z,19.08
2019-05-13T09:43:22.208Z,18.86
2019-05-13T09:45:57.175Z,19.06
2019-05-13T09:48:35.454Z,18.64
2019-05-13T09:51:12.396Z,19.07
2019-05-13T09:53:46.321Z,19.21
2019-05-13T09:56:22.312Z,19.13
2019-05-13T09:58:55.895Z,19.28
2019-05-13T10:01:32.238Z,19.23
2019-05-13T10:04:06.405Z,19.39
2019-05-13T10:06:42.145Z,19.38
2019-05-13T10:09:22.414Z,19.24
2019-05-13T10:11:55.859Z,19.08
2019-05-13T10:14:32.653Z,19.38
2019-05-13T10:17:06.754Z,19.41
2019-05-13T10:19:42.189Z,18.94
2019-05-13T10:22:16.092Z,19.11
2019-05-13T10:24:52.762Z,18.99
2019-05-13T10:27:27.511Z,19.39
2019-05-13T10:30:02.090Z,20.21
2019-05-13T10:32:35.873Z,19.51
2019-05-13T10:35:11.696Z,19.19
2019-05-13T10:37:47.200Z,19.32
2019-05-13T10:40:22.936Z,19.40
2019-05-13T10:42:58.664Z,19.67
2019-05-13T10:45:33.216Z,20.24
2019-05-13T10:48:10.475Z,19.89
2019-05-13T10:50:44.680Z,19.84
2019-05-13T10:53:22.175Z,20.41
2019-05-13T10:55:55.780Z,20.57
2019-05-13T10:58:29.530Z,20.65
2019-05-13T11:01:06.049Z,21.05
2019-05-13T11:03:42.686Z,20.69
2019-05-13T11:06:17.176Z,20.58
2019-05-13T11:08:53.748Z,19.49
2019-05-13T11:11:32.049Z,19.53
2019-05-13T11:14:11.019Z,19.72
2019-05-13T11:16:42.651Z,19.87
2019-05-13T11:19:17.032Z,20.11
2019-05-13T11:21:53.031Z,20.21
2019-05-13T11:24:26.793Z,19.18
2019-05-13T11:27:02.965Z,18.65
2019-05-13T11:29:37.996Z,18.37
2019-05-13T11:32:13.847Z,18.86
2019-05-13T11:34:48.785Z,19.28
2019-05-13T11:37:24.270Z,19.12
2019-05-13T11:39:59.132Z,18.97
2019-05-13T11:42:33.209Z,18.51
2019-05-13T11:45:08.360Z,18.53
2019-05-13T11:47:41.961Z,19.40
2019-05-13T11:50:18.652Z,19.86
2019-05-13T11:52:52.708Z,20.23
2019-05-13T11:55:26.409Z,19.44
2019-05-13T11:58:02.987Z,19.47
2019-05-13T12:01:03.113Z,19.71
2019-05-13T12:03:36.889Z,19.81
2019-05-13T12:06:10.711Z,20.30
2019-05-13T12:08:50.795Z,20.17
2019-05-13T12:11:22.536Z,20.50
2019-05-13T12:13:56.421Z,20.76
2019-05-13T12:16:30.370Z,20.37
2019-05-13T12:19:04.278Z,20.69
2019-05-13T12:21:43.306Z,20.52
2019-05-13T12:24:17.698Z,20.65
2019-05-13T12:26:53.146Z,20.99
2019-05-13T12:29:26.918Z,20.45
2019-05-13T12:32:03.316Z,20.46
2019-05-13T12:34:41.806Z,20.72
2019-05-13T12:37:14.264Z,20.87
2019-05-13T12:39:48.016Z,20.84
2019-05-13T12:42:22.823Z,21.14
2019-05-13T12:45:05.397Z,20.95
2019-05-13T12:47:34.463Z,21.14
2019-05-13T12:50:09.529Z,20.88
2019-05-13T12:52:44.924Z,20.95
2019-05-13T12:55:18.850Z,20.91
2019-05-13T12:57:53.623Z,20.98
2019-05-13T13:00:27.604Z,20.80
2019-05-13T13:03:02.965Z,20.74
2019-05-13T13:05:38.275Z,20.72
2019-05-13T13:08:24.368Z,20.67
2019-05-13T13:10:47.830Z,20.95
2019-05-13T13:13:51.666Z,21.03
2019-05-13T13:15:58.577Z,21.04
2019-05-13T13:18:32.747Z,21.03
2019-05-13T13:21:08.332Z,21.20
2019-05-13T13:23:42.933Z,20.79
2019-05-13T13:26:16.801Z,20.84
2019-05-13T13:28:55.921Z,21.01
2019-05-13T13:31:26.793Z,21.09
2019-05-13T13:34:11.262Z,21.06
2019-05-13T13:36:39.324Z,21.09
2019-05-13T13:39:15.737Z,20.59
2019-05-13T13:41:49.740Z,20.61
2019-05-13T13:44:25.242Z,20.85
2019-05-13T13:46:59.130Z,20.41
2019-05-13T13:49:35.327Z,20.27
2019-05-13T13:52:16.002Z,20.35
2019-05-13T13:54:46.152Z,20.23
2019-05-13T13:57:25.638Z,20.45
2019-05-13T14:00:19.722Z,20.37
2019-05-13T14:02:37.009Z,20.51
2019-05-13T14:05:08.312Z,20.56
2019-05-13T14:07:42.541Z,20.28
2019-05-13T14:10:17.457Z,20.30
2019-05-13T14:12:52.563Z,20.37
2019-05-13T14:15:26.584Z,20.23
2019-05-13T14:18:00.649Z,19.94
2019-05-13T14:20:38.926Z,19.71
2019-05-13T14:23:12.805Z,19.80
2019-05-13T14:25:47.917Z,20.04
2019-05-13T14:28:23.133Z,20.04
2019-05-13T14:30:56.967Z,20.07
2019-05-13T14:33:35.255Z,20.08
2019-05-13T14:36:07.322Z,20.04
2019-05-13T14:38:41.245Z,19.75
2019-05-13T14:41:15.041Z,19.69
2019-05-13T14:43:48.883Z,19.63
2019-05-13T14:46:35.405Z,19.75
2019-05-13T14:49:01.641Z,19.62
2019-05-13T14:51:35.166Z,19.78
2019-05-13T14:54:08.864Z,19.61
2019-05-13T14:56:42.684Z,19.45
2019-05-13T14:59:16.769Z,19.83
2019-05-13T15:01:51.845Z,19.72
2019-05-13T15:04:25.768Z,19.41
2019-05-13T15:06:59.806Z,18.75
2019-05-13T15:09:33.868Z,18.57
2019-05-13T15:12:08.170Z,18.24
2019-05-13T15:14:43.042Z,18.28
2019-05-13T15:17:21.468Z,17.86
2019-05-13T15:19:55.826Z,17.55
2019-05-13T15:22:31.901Z,17.19
2019-05-13T15:25:06.386Z,17.11
2019-05-13T15:27:42.219Z,17.02
2019-05-13T15:30:18.061Z,17.36
2019-05-13T15:32:52.554Z,17.35
2019-05-13T15:35:26.920Z,17.10
2019-05-13T15:38:01.313Z,17.12
2019-05-13T15:40:36.661Z,17.66
2019-05-13T15:43:11.651Z,17.66
2019-05-13T15:45:45.665Z,17.80
2019-05-13T15:48:22.267Z,17.83
2019-05-13T15:50:56.387Z,17.63
2019-05-13T15:53:32.123Z,17.18
2019-05-13T15:56:07.602Z,17.02
2019-05-13T15:58:44.526Z,16.51
2019-05-13T16:01:22.676Z,16.32
2019-05-13T16:03:55.360Z,16.17
2019-05-13T16:06:29.096Z,16.36
2019-05-13T16:09:03.146Z,16.75
2019-05-13T16:11:37.178Z,16.87
2019-05-13T16:14:11.818Z,16.87
2019-05-13T16:16:47.768Z,16.95
2019-05-13T16:19:22.128Z,16.92
2019-05-13T16:21:55.864Z,16.96
2019-05-13T16:24:31.935Z,16.76
2019-05-13T16:27:06.684Z,16.80
2019-05-13T16:29:42.204Z,16.72
2019-05-13T16:32:15.969Z,16.79
2019-05-13T16:34:51.888Z,16.68
2019-05-13T16:37:25.249Z,16.87
2019-05-13T16:40:00.736Z,16.59
2019-05-13T16:42:34.928Z,16.53
2019-05-13T16:45:12.608Z,16.53
2019-05-13T16:47:56.612Z,16.40
2019-05-13T16:50:23.049Z,16.39
2019-05-13T16:52:57.969Z,16.09
2019-05-13T16:55:32.835Z,16.01
2019-05-13T16:58:06.708Z,16.00
2019-05-13T17:00:43.052Z,16.03
2019-05-13T17:03:18.407Z,16.00
2019-05-13T17:05:53.411Z,15.95
2019-05-13T17:08:27.796Z,15.71
2019-05-13T17:11:02.169Z,15.76
2019-05-13T17:13:36.053Z,15.63
2019-05-13T17:16:09.910Z,15.65
2019-05-13T17:18:45.773Z,15.36
2019-05-13T17:21:21.226Z,15.51
2019-05-13T17:23:57.627Z,15.39
2019-05-13T17:26:32.798Z,15.40
2019-05-13T17:29:08.827Z,15.13
2019-05-13T17:31:44.533Z,15.32
2019-05-13T17:34:21.153Z,15.44
2019-05-13T17:36:55.802Z,15.30
2019-05-13T17:39:32.043Z,15.20
2019-05-13T17:42:05.728Z,15.08
2019-05-13T17:44:45.955Z,15.00
2019-05-13T17:47:16.167Z,14.93
2019-05-13T17:49:52.087Z,14.89
2019-05-13T17:52:26.586Z,14.85
2019-05-13T17:55:01.116Z,14.52
2019-05-13T17:57:36.371Z,14.53
2019-05-13T18:00:12.508Z,14.38
2019-05-13T18:02:47.213Z,14.57
2019-05-13T18:05:22.589Z,14.14
2019-05-13T18:08:01.675Z,14.08
2019-05-13T18:10:35.352Z,13.88
2019-05-13T18:13:12.452Z,13.88
2019-05-13T18:15:45.253Z,13.86
2019-05-13T18:18:21.420Z,13.89
2019-05-13T18:20:55.079Z,13.71
2019-05-13T18:23:28.837Z,13.56
2019-05-13T18:26:04.512Z,13.51
2019-05-13T18:28:38.882Z,13.47
2019-05-13T18:31:13.125Z,13.33
2019-05-13T18:33:47.544Z,13.28
2019-05-13T18:36:22.413Z,13.13
2019-05-13T18:38:58.126Z,13.06
2019-05-13T18:41:33.686Z,12.99
2019-05-13T18:44:12.304Z,12.92
2019-05-13T18:46:52.309Z,12.64
2019-05-13T18:49:26.941Z,12.58
2019-05-13T18:52:02.321Z,12.42
2019-05-13T18:54:36.242Z,12.35
2019-05-13T18:57:12.464Z,12.37
2019-05-13T18:59:46.996Z,12.30
2019-05-13T19:02:25.366Z,12.14
2019-05-13T19:05:01.425Z,12.02
2019-05-13T19:07:41.833Z,11.95
2019-05-13T19:10:22.015Z,11.85
2019-05-13T19:12:58.101Z,11.63
2019-05-13T19:15:36.128Z,11.51
2019-05-13T19:18:12.252Z,11.56
2019-05-13T19:20:51.324Z,11.51
2019-05-13T19:23:28.207Z,11.35
2019-05-13T19:26:03.048Z,11.29
2019-05-13T19:28:43.206Z,11.31
2019-05-13T19:31:18.148Z,11.24
2019-05-13T19:33:53.608Z,11.14
2019-05-13T19:36:28.079Z,11.19
2019-05-13T19:39:11.224Z,11.25
2019-05-13T19:41:44.834Z,11.09
2019-05-13T19:44:19.059Z,11.12
2019-05-13T19:46:52.894Z,11.12
2019-05-13T19:49:33.774Z,10.91
2019-05-13T19:52:06.087Z,10.89
2019-05-13T19:54:42.014Z,10.90
2019-05-13T19:57:16.173Z,10.92
2019-05-13T19:59:50.951Z,10.74
2019-05-13T20:02:25.393Z,10.60
2019-05-13T20:05:01.230Z,10.55
2019-05-13T20:07:34.639Z,10.50
2019-05-13T20:10:12.630Z,10.52
2019-05-13T20:12:48.137Z,10.33
2019-05-13T20:15:25.083Z,10.27
2019-05-13T20:18:01.421Z,10.28
2019-05-13T20:20:38.300Z,10.34
2019-05-13T20:23:12.203Z,10.22
2019-05-13T20:25:47.717Z,10.11
2019-05-13T20:28:21.553Z,10.06
2019-05-13T20:30:55.281Z,10.02
2019-05-13T20:33:31.633Z,10.08
2019-05-13T20:36:05.196Z,9.87
2019-05-13T20:38:39.077Z,9.87
2019-05-13T20:41:13.296Z,9.96
2019-05-13T20:43:47.485Z,9.85
2019-05-13T20:46:23.908Z,9.84
2019-05-13T20:48:58.083Z,9.71
2019-05-13T20:51:33.403Z,9.83
2019-05-13T20:54:07.418Z,9.89
2019-05-13T20:56:42.241Z,9.65
2019-05-13T20:59:21.576Z,9.65
2019-05-13T21:03:02.601Z,9.47
2019-05-13T21:05:37.535Z,9.41
2019-05-13T21:08:13.083Z,9.31
2019-05-13T21:10:48.504Z,9.26
2019-05-13T21:13:25.045Z,9.19
2019-05-13T21:16:02.327Z,9.15
2019-05-13T21:18:37.809Z,9.04
2019-05-13T21:21:13.407Z,9.08
2019-05-13T21:23:48.518Z,9.04
2019-05-13T21:26:23.156Z,8.99
2019-05-13T21:28:57.255Z,8.98
2019-05-13T21:31:30.960Z,8.91
2019-05-13T21:34:07.945Z,8.89
2019-05-13T21:36:41.542Z,8.69
2019-05-13T21:39:16.474Z,8.87
2019-05-13T21:41:51.900Z,8.80
2019-05-13T21:44:27.292Z,8.90
2019-05-13T21:47:02.167Z,8.65
2019-05-13T21:49:35.799Z,8.59
2019-05-13T21:52:09.696Z,8.65
2019-05-13T21:54:43.305Z,8.61
2019-05-13T21:57:16.919Z,8.55
2019-05-13T21:59:51.584Z,8.44
2019-05-13T22:02:25.251Z,8.43
2019-05-13T22:05:00.956Z,8.35
2019-05-13T22:07:33.887Z,8.24
2019-05-13T22:10:09.668Z,8.15
2019-05-13T22:12:43.257Z,8.06
2019-05-13T22:15:16.974Z,8.02
2019-05-13T22:17:51.315Z,8.07
2019-05-13T22:20:25.382Z,8.05
2019-05-13T22:23:01.484Z,7.87
2019-05-13T22:25:35.699Z,7.85
2019-05-13T22:28:09.160Z,7.73
2019-05-13T22:30:42.663Z,7.72
2019-05-13T22:33:16.164Z,7.76
2019-05-13T22:35:52.126Z,7.84
2019-05-13T22:38:24.801Z,7.74
2019-05-13T22:41:01.066Z,7.75
2019-05-13T22:43:35.286Z,7.74
2019-05-13T22:46:08.789Z,7.72
2019-05-13T22:48:42.695Z,7.67
2019-05-13T22:51:16.302Z,7.63
2019-05-13T22:53:49.805Z,7.71
2019-05-13T22:56:23.301Z,7.57
2019-05-13T22:58:58.356Z,7.57
2019-05-13T23:01:32.373Z,7.47
2019-05-13T23:04:07.384Z,7.47
2019-05-13T23:06:41.398Z,7.39
2019-05-13T23:09:14.817Z,7.31
2019-05-13T23:11:50.982Z,7.26
2019-05-13T23:14:24.257Z,7.25
2019-05-13T23:16:57.856Z,7.17
2019-05-13T23:19:32.457Z,7.15
2019-05-13T23:22:06.544Z,7.15
2019-05-13T23:24:41.740Z,7.11
2019-05-13T23:27:15.852Z,7.09
2019-05-13T23:29:51.718Z,7.01
2019-05-13T23:32:25.354Z,6.95
2019-05-13T23:35:02.052Z,6.97
2019-05-13T23:37:35.690Z,6.92
2019-05-13T23:40:11.862Z,6.90
2019-05-13T23:42:48.346Z,6.89
2019-05-13T23:45:22.261Z,6.84
2019-05-13T23:47:56.140Z,6.81
2019-05-13T23:50:31.947Z,6.79
2019-05-13T23:53:05.398Z,6.69
2019-05-13T23:55:41.243Z,6.59
2019-05-13T23:58:14.549Z,6.49
